Time;durP1;ratioP1;P1;durP2;ratioP2;P2;SDS_P1;SDS_P2;PMS_P1;PMS_P2;Temp;Humidity;BMP_temperature;BMP_pressure;BME280_temperature;BME280_humidity;BME280_pressure;Samples;Min_cycle;Max_cycle;Signal;HPM_P1;HPM_P2
2022/11/28 00:00:24;;;;;;;11.07;7.35;;;;;;;1.56;100.00;98565.50;4202829;28;20050;-75
2022/11/28 00:02:24;;;;;;;14.00;8.10;;;;;;;1.56;100.00;98552.69;4202382;28;20055;-76
2022/11/28 00:04:24;;;;;;;13.65;8.07;;;;;;;1.57;100.00;98556.22;4202830;28;20058;-75
2022/11/28 00:06:26;;;;;;;13.38;7.43;;;;;;;1.56;100.00;98549.94;4203041;28;20036;-75
2022/11/28 00:08:26;;;;;;;12.23;7.30;;;;;;;1.57;100.00;98539.84;4203011;28;20735;-75
2022/11/28 00:10:26;;;;;;;11.13;6.47;;;;;;;1.58;100.00;98536.81;4203157;28;20055;-75
2022/11/28 00:12:27;;;;;;;9.43;5.40;;;;;;;1.60;100.00;98534.59;4201949;28;20036;-75
2022/11/28 00:14:27;;;;;;;9.05;5.43;;;;;;;1.59;100.00;98524.00;4201979;28;20106;-75
2022/11/28 00:16:28;;;;;;;8.68;5.43;;;;;;;1.63;100.00;98522.22;4203095;28;20141;-76
2022/11/28 00:18:29;;;;;;;7.70;4.95;;;;;;;1.62;100.00;98523.34;4202909;28;20682;-75
2022/11/28 00:20:30;;;;;;;6.40;4.40;;;;;;;1.62;100.00;98515.16;4202660;28;20044;-75
2022/11/28 00:22:31;;;;;;;6.72;4.72;;;;;;;1.62;100.00;98523.34;4202354;28;20056;-75
2022/11/28 00:24:31;;;;;;;8.18;4.32;;;;;;;1.63;100.00;98517.56;4202075;28;20524;-76
2022/11/28 00:26:38;;;;;;;5.75;4.05;;;;;;;1.67;100.00;98517.75;4201830;28;20558;-76
2022/11/28 00:28:39;;;;;;;7.22;4.38;;;;;;;1.67;100.00;98512.31;4202660;28;20082;-76
2022/11/28 00:30:39;;;;;;;7.10;4.10;;;;;;;1.70;100.00;98511.66;4202838;28;20246;-75
2022/11/28 00:32:39;;;;;;;7.93;4.40;;;;;;;1.71;100.00;98512.44;4201599;28;20413;-75
2022/11/28 00:34:40;;;;;;;8.13;4.28;;;;;;;1.69;100.00;98494.47;4184016;28;20485;-75
2022/11/28 00:36:43;;;;;;;5.32;3.42;;;;;;;1.73;100.00;98496.56;4202701;28;20178;-76
2022/11/28 00:38:44;;;;;;;6.22;3.55;;;;;;;1.73;100.00;98489.19;4202765;28;20480;-75
2022/11/28 00:40:44;;;;;;;8.68;4.28;;;;;;;1.75;100.00;98495.13;4202171;28;20040;-76
2022/11/28 00:42:44;;;;;;;6.53;3.72;;;;;;;1.75;100.00;98483.44;4201725;28;20040;-75
2022/11/28 00:44:45;;;;;;;6.03;3.60;;;;;;;1.78;100.00;98478.13;4202216;28;20126;-75
2022/11/28 00:46:45;;;;;;;6.72;3.85;;;;;;;1.78;100.00;98472.66;4202726;28;20047;-75
2022/11/28 00:48:46;;;;;;;6.55;3.70;;;;;;;1.81;100.00;98463.84;4203186;28;20119;-75
2022/11/28 00:50:46;;;;;;;5.40;3.33;;;;;;;1.84;100.00;98456.94;4202085;28;20040;-75
2022/11/28 00:52:47;;;;;;;6.00;3.67;;;;;;;1.86;100.00;98455.50;4201744;28;20453;-75
2022/11/28 00:54:47;;;;;;;6.13;3.78;;;;;;;1.91;100.00;98451.81;4202274;28;20075;-75
2022/11/28 00:56:47;;;;;;;5.53;3.58;;;;;;;1.94;100.00;98456.63;4202000;28;20135;-75
2022/11/28 00:58:49;;;;;;;6.30;3.70;;;;;;;1.91;100.00;98447.16;4202493;28;20123;-76
2022/11/28 01:00:49;;;;;;;4.88;3.75;;;;;;;1.91;100.00;98436.25;4201901;28;20499;-75
2022/11/28 01:02:49;;;;;;;6.65;3.08;;;;;;;1.92;100.00;98435.13;4201427;28;20059;-76
2022/11/28 01:04:50;;;;;;;6.25;3.65;;;;;;;1.93;100.00;98430.47;4202028;28;20036;-76
2022/11/28 01:06:50;;;;;;;6.78;3.50;;;;;;;1.93;100.00;98425.00;4202447;28;20051;-75
2022/11/28 01:08:51;;;;;;;5.80;3.90;;;;;;;1.97;100.00;98443.13;4202550;28;20217;-76
2022/11/28 01:10:51;;;;;;;5.15;3.70;;;;;;;1.96;100.00;98446.19;4201460;28;20044;-75
2022/11/28 01:12:52;;;;;;;7.40;3.80;;;;;;;1.95;100.00;98450.84;4201528;28;20036;-75
2022/11/28 01:14:52;;;;;;;5.78;3.88;;;;;;;1.98;100.00;98449.38;4201990;28;20093;-75
2022/11/28 01:16:52;;;;;;;6.35;3.78;;;;;;;1.97;100.00;98436.88;4202265;28;20388;-75
2022/11/28 01:18:53;;;;;;;6.38;3.85;;;;;;;1.96;100.00;98427.88;4202491;28;20119;-76
2022/11/28 01:20:53;;;;;;;6.15;3.55;;;;;;;1.99;100.00;98421.00;4201957;28;20040;-75
2022/11/28 01:22:54;;;;;;;5.47;3.65;;;;;;;1.98;100.00;98420.16;4200826;28;20086;-75
2022/11/28 01:24:54;;;;;;;6.53;4.03;;;;;;;1.98;100.00;98420.16;4201737;28;20048;-75
2022/11/28 01:26:54;;;;;;;6.75;3.40;;;;;;;1.97;100.00;98436.88;4202106;28;20051;-75
2022/11/28 01:28:56;;;;;;;6.13;3.70;;;;;;;1.96;100.00;98455.16;4202112;28;20048;-76
2022/11/28 01:31:01;;;;;;;5.75;3.88;;;;;;;1.96;100.00;98449.72;4202215;28;20481;-75
2022/11/28 01:33:01;;;;;;;6.40;4.15;;;;;;;1.97;100.00;98439.59;4201110;28;20071;-75
2022/11/28 01:35:02;;;;;;;5.80;3.83;;;;;;;1.97;100.00;98442.31;4202069;28;20473;-75
2022/11/28 01:37:02;;;;;;;5.88;3.30;;;;;;;1.94;100.00;98437.53;4201680;28;20450;-75
2022/11/28 01:39:03;;;;;;;7.10;4.63;;;;;;;1.92;100.00;98446.03;4201526;28;20075;-75
2022/11/28 01:41:04;;;;;;;5.97;3.60;;;;;;;1.92;100.00;98447.97;4201941;28;20388;-75
2022/11/28 01:43:04;;;;;;;8.23;4.63;;;;;;;1.91;100.00;98441.72;4201227;28;20044;-75
2022/11/28 01:45:24;;;;;;;6.20;3.70;;;;;;;1.92;100.00;98437.06;4202134;28;20063;-75
2022/11/28 01:47:29;;;;;;;6.68;4.03;;;;;;;1.90;100.00;98437.38;4202342;28;20063;-76
2022/11/28 01:49:35;;;;;;;11.85;8.40;;;;;;;1.89;100.00;98426.75;4202223;28;20040;-75
2022/11/28 01:51:38;;;;;;;9.85;6.75;;;;;;;1.91;100.00;98425.34;4200858;28;20036;-75
2022/11/28 01:53:44;;;;;;;9.10;5.05;;;;;;;1.92;100.00;98428.88;4200239;28;20447;-75
2022/11/28 01:55:58;;;;;;;7.53;4.60;;;;;;;1.88;100.00;98419.69;4203299;28;20044;-75
2022/11/28 01:57:59;;;;;;;7.25;4.75;;;;;;;1.89;100.00;98426.75;4205041;28;20050;-75
2022/11/28 02:00:07;;;;;;;7.95;5.38;;;;;;;1.86;100.00;98422.75;4204612;28;20555;-75
2022/11/28 02:02:14;;;;;;;8.38;5.72;;;;;;;1.88;100.00;98442.34;4168935;28;20072;-76
2022/11/28 02:04:14;;;;;;;6.68;4.22;;;;;;;1.86;100.00;98443.78;4204152;28;20027;-76
2022/11/28 02:06:17;;;;;;;6.60;4.20;;;;;;;1.88;100.00;98433.34;4204483;28;20476;-76
2022/11/28 02:08:18;;;;;;;6.57;3.95;;;;;;;1.88;100.00;98428.69;4186695;28;20622;-75
2022/11/28 02:10:31;;;;;;;5.68;3.83;;;;;;;1.87;100.00;98424.34;4204891;28;20036;-75
2022/11/28 02:13:05;;;;;;;6.50;3.97;;;;;;;1.84;100.00;98427.75;4203617;28;20036;-75
2022/11/28 02:15:34;;;;;;;5.72;4.10;;;;;;;1.84;100.00;98421.50;4204324;28;20127;-75
2022/11/28 02:17:40;;;;;;;6.88;3.88;;;;;;;1.80;100.00;98415.06;4204596;28;20540;-75
2022/11/28 02:19:58;;;;;;;6.68;4.00;;;;;;;1.81;100.00;98422.09;4204291;28;20051;-76
2022/11/28 02:22:27;;;;;;;7.40;4.07;;;;;;;1.80;100.00;98429.50;4204605;28;20515;-76
2022/11/28 02:24:54;;;;;;;7.45;4.13;;;;;;;1.80;100.00;98415.06;4203463;28;20078;-75
2022/11/28 02:27:16;;;;;;;6.18;3.67;;;;;;;1.78;100.00;98411.84;4204869;28;20526;-75
2022/11/28 02:29:41;;;;;;;6.63;3.83;;;;;;;1.77;100.00;98416.50;4204443;28;20054;-76
2022/11/28 02:32:18;;;;;;;7.82;4.55;;;;;;;1.75;100.00;98420.69;4185555;28;20315;-75
2022/11/28 02:34:44;;;;;;;6.18;4.05;;;;;;;1.73;100.00;98417.47;4203559;28;20749;-75
2022/11/28 02:36:45;;;;;;;8.70;3.90;;;;;;;1.73;100.00;98406.53;4204438;28;20047;-75
2022/11/28 02:38:50;;;;;;;7.60;3.97;;;;;;;1.72;100.00;98407.69;4204426;28;20043;-75
2022/11/28 02:41:22;;;;;;;7.40;4.50;;;;;;;1.72;100.00;98403.03;4204387;28;20036;-76
2022/11/28 02:44:00;;;;;;;15.30;8.20;;;;;;;1.70;100.00;98413.47;4202332;28;20048;-75
2022/11/28 02:46:09;;;;;;;15.45;7.93;;;;;;;1.68;100.00;98411.06;4151297;28;20135;-75
2022/11/28 02:48:22;;;;;;;11.73;7.22;;;;;;;1.68;100.00;98408.31;4204367;28;20126;-75
2022/11/28 02:50:31;;;;;;;9.80;6.10;;;;;;;1.67;100.00;98400.47;4204122;28;20052;-75
2022/11/28 02:52:47;;;;;;;8.25;5.50;;;;;;;1.66;100.00;98401.59;4203031;28;20105;-76
2022/11/28 02:54:51;;;;;;;7.45;5.38;;;;;;;1.66;100.00;98396.94;4204096;28;20082;-75
2022/11/28 02:56:53;;;;;;;7.40;4.45;;;;;;;1.66;100.00;98402.41;4203833;28;20123;-75
2022/11/28 02:58:53;;;;;;;6.38;4.45;;;;;;;1.64;100.00;98399.16;4204600;28;20442;-75
2022/11/28 03:00:54;;;;;;;8.07;4.60;;;;;;;1.63;100.00;98389.38;4203759;28;20635;-76
2022/11/28 03:03:02;;;;;;;7.57;4.57;;;;;;;1.63;100.00;98389.38;4203275;28;20048;-75
2022/11/28 03:05:42;;;;;;;7.50;4.07;;;;;;;1.63;100.00;98389.38;4202819;28;20317;-75
2022/11/28 03:08:09;;;;;;;6.97;3.95;;;;;;;1.61;100.00;98388.13;4151858;28;20534;-75
2022/11/28 03:11:01;;;;;;;7.20;4.32;;;;;;;1.61;100.00;98380.72;4203167;28;20288;-75
2022/11/28 03:13:14;;;;;;;8.52;4.85;;;;;;;1.61;100.00;98379.94;4172012;28;20040;-75
2022/11/28 03:15:19;;;;;;;6.55;4.18;;;;;;;1.59;100.00;98371.28;4202511;28;20584;-75
2022/11/28 03:17:34;;;;;;;9.13;4.80;;;;;;;1.60;100.00;98381.06;4185495;28;20084;-75
2022/11/28 03:19:47;;;;;;;8.00;4.25;;;;;;;1.59;100.00;98371.28;4203895;28;20599;-75
2022/11/28 03:21:55;;;;;;;8.15;4.38;;;;;;;1.57;100.00;98373.50;4203490;28;20055;-76
2022/11/28 03:24:01;;;;;;;7.82;4.50;;;;;;;1.58;100.00;98388.75;4203133;28;20498;-75
2022/11/28 03:26:08;;;;;;;8.48;5.40;;;;;;;1.55;100.00;98403.81;4202906;28;20484;-75
2022/11/28 03:28:28;;;;;;;8.27;6.07;;;;;;;1.57;100.00;98392.59;4203647;28;20499;-75
2022/11/28 03:30:36;;;;;;;9.18;4.90;;;;;;;1.56;100.00;98375.44;4202775;28;20086;-75
2022/11/28 03:32:39;;;;;;;7.55;4.55;;;;;;;1.56;100.00;98374.63;4202277;28;20179;-75
2022/11/28 03:34:46;;;;;;;7.75;5.25;;;;;;;1.55;100.00;98371.09;4203299;28;20149;-75
2022/11/28 03:36:54;;;;;;;7.43;4.65;;;;;;;1.53;100.00;98376.09;4203215;28;20051;-75
2022/11/28 03:39:09;;;;;;;6.68;4.25;;;;;;;1.52;100.00;98370.97;4202779;28;20564;-75
2022/11/28 03:41:17;;;;;;;7.65;4.72;;;;;;;1.54;100.00;98371.44;4203649;28;20068;-75
2022/11/28 03:43:31;;;;;;;8.20;5.20;;;;;;;1.51;100.00;98375.59;4202864;28;20756;-76
2022/11/28 03:45:37;;;;;;;9.07;4.85;;;;;;;1.53;100.00;98372.56;4203152;28;20441;-75
2022/11/28 03:47:43;;;;;;;12.23;5.75;;;;;;;1.46;100.00;98367.56;4203805;28;20492;-75
2022/11/28 03:49:50;;;;;;;10.15;4.93;;;;;;;1.45;100.00;98367.91;4202883;28;20428;-76
2022/11/28 03:51:56;;;;;;;6.68;4.70;;;;;;;1.42;100.00;98374.81;4202630;28;20048;-75
2022/11/28 03:54:01;;;;;;;9.50;5.30;;;;;;;1.35;100.00;98366.31;4202482;28;20043;-75
2022/11/28 03:56:16;;;;;;;11.52;5.47;;;;;;;1.35;100.00;98372.56;4202902;28;20072;-75
2022/11/28 03:58:34;;;;;;;7.97;4.93;;;;;;;1.36;100.00;98371.44;4202864;28;20059;-76
2022/11/28 04:00:42;;;;;;;8.98;5.40;;;;;;;1.36;100.00;98374.16;4202392;28;20044;-75
2022/11/28 04:03:05;;;;;;;8.38;4.60;;;;;;;1.36;100.00;98362.44;4201971;28;20391;-75
2022/11/28 04:05:42;;;;;;;8.70;5.50;;;;;;;1.35;100.00;98363.56;4201057;28;20040;-75
2022/11/28 04:07:53;;;;;;;9.10;5.32;;;;;;;1.32;100.00;98351.38;4202851;28;20440;-75
2022/11/28 04:10:08;;;;;;;7.47;5.07;;;;;;;1.31;100.00;98347.03;4202861;28;20059;-75
2022/11/28 04:12:18;;;;;;;9.60;4.93;;;;;;;1.29;100.00;98349.28;4202807;28;20048;-75
2022/11/28 04:14:33;;;;;;;12.00;6.20;;;;;;;1.29;100.00;98351.22;4202133;28;20556;-75
2022/11/28 04:16:40;;;;;;;9.05;5.53;;;;;;;1.29;100.00;98351.22;4202763;28;20040;-76
2022/11/28 04:19:05;;;;;;;10.48;5.90;;;;;;;1.29;100.00;98332.13;4184055;28;20114;-75
2022/11/28 04:21:18;;;;;;;10.80;5.53;;;;;;;1.27;100.00;98329.75;4202096;28;20434;-76
2022/11/28 04:23:20;;;;;;;11.23;6.00;;;;;;;1.32;100.00;98328.75;4201789;28;20056;-75
2022/11/28 04:25:22;;;;;;;;;;;;;;;1.32;100.00;98334.22;4203074;28;20484;-75
2022/11/28 04:27:29;;;;;;;14.63;5.40;;;;;;;1.30;100.00;98331.81;4203085;28;20514;-75
2022/11/28 04:29:35;;;;;;;9.32;5.40;;;;;;;1.38;100.00;98332.94;4202865;28;20418;-75
2022/11/28 04:31:38;;;;;;;8.65;5.72;;;;;;;1.33;100.00;98325.75;4202758;28;20134;-75
2022/11/28 04:33:45;;;;;;;9.07;6.13;;;;;;;1.35;100.00;98323.50;4202274;28;20597;-75
2022/11/28 04:35:50;;;;;;;9.23;5.30;;;;;;;1.34;100.00;98315.63;4201188;28;20052;-76
2022/11/28 04:37:52;;;;;;;10.25;6.13;;;;;;;1.33;100.00;98305.84;4202238;28;20388;-75
2022/11/28 04:39:54;;;;;;;;;;;;;;;1.34;100.00;98318.38;4202680;28;20039;-75
2022/11/28 04:42:18;;;;;;;9.27;6.40;;;;;;;1.32;100.00;98309.69;4202090;28;19923;-75
2022/11/28 04:44:25;;;;;;;9.65;5.75;;;;;;;1.30;100.00;98304.56;4201498;28;20055;-75
2022/11/28 04:46:34;;;;;;;13.85;6.13;;;;;;;1.28;100.00;98309.53;4201132;28;20040;-75
2022/11/28 04:48:35;;;;;;;11.52;6.43;;;;;;;1.29;100.00;98319.31;4200745;28;20039;-75
2022/11/28 04:50:51;;;;;;;9.85;5.95;;;;;;;1.29;100.00;98323.97;4202517;28;20211;-75
2022/11/28 04:52:59;;;;;;;10.95;5.68;;;;;;;1.26;100.00;98313.72;4201962;28;20332;-75
2022/11/28 04:55:02;;;;;;;9.93;5.70;;;;;;;1.26;100.00;98325.41;4201824;28;20051;-75
2022/11/28 04:57:20;;;;;;;9.68;5.85;;;;;;;1.30;100.00;98320.91;4202255;28;20089;-76
2022/11/28 04:59:25;;;;;;;9.07;5.95;;;;;;;1.25;100.00;98309.38;4202336;28;20040;-75
2022/11/28 05:01:29;;;;;;;8.48;5.43;;;;;;;1.26;100.00;98302.81;4201643;28;20523;-75
2022/11/28 05:03:30;;;;;;;9.82;6.00;;;;;;;1.23;100.00;98315.13;4201391;28;20072;-75
2022/11/28 05:05:31;;;;;;;8.70;5.90;;;;;;;1.22;100.00;98307.28;4202249;28;20470;-75
2022/11/28 05:07:31;;;;;;;10.13;6.63;;;;;;;1.20;100.00;98315.78;4202387;28;20048;-76
2022/11/28 05:09:32;;;;;;;10.32;6.50;;;;;;;1.16;100.00;98319.47;4202142;28;20040;-76
2022/11/28 05:11:32;;;;;;;8.90;5.68;;;;;;;1.12;100.00;98313.84;4201982;28;20078;-76
2022/11/28 05:13:32;;;;;;;8.52;5.43;;;;;;;1.08;100.00;98316.44;4201143;28;20304;-75
2022/11/28 05:15:33;;;;;;;12.82;6.85;;;;;;;1.08;100.00;98318.34;4202213;28;20208;-75
2022/11/28 05:17:33;;;;;;;11.52;6.18;;;;;;;1.04;100.00;98307.28;4201720;28;20450;-75
2022/11/28 05:19:33;;;;;;;10.27;5.72;;;;;;;1.03;100.00;98324.75;4202036;28;20105;-75
2022/11/28 05:21:33;;;;;;;10.95;6.32;;;;;;;0.98;100.00;98322.16;4201874;28;20040;-75
2022/11/28 05:23:35;;;;;;;9.77;5.78;;;;;;;0.98;100.00;98313.19;4201388;28;20048;-76
2022/11/28 05:25:38;;;;;;;9.73;5.63;;;;;;;0.97;100.00;98312.41;4200517;28;20040;-75
2022/11/28 05:27:38;;;;;;;11.05;6.80;;;;;;;0.96;100.00;98304.56;4202170;28;20092;-75
2022/11/28 05:29:42;;;;;;;11.10;6.18;;;;;;;0.94;100.00;98304.88;4200722;28;20056;-76
2022/11/28 05:31:42;;;;;;;14.20;6.13;;;;;;;0.92;100.00;98300.88;4204323;28;20492;-75
2022/11/28 05:33:43;;;;;;;11.63;5.70;;;;;;;0.96;100.00;98290.94;4204747;28;20040;-75
2022/11/28 05:35:43;;;;;;;10.02;5.90;;;;;;;0.97;100.00;98298.78;4205327;28;20318;-75
2022/11/28 05:37:43;;;;;;;11.32;6.40;;;;;;;1.00;100.00;98289.19;4204796;28;20123;-76
2022/11/28 05:39:43;;;;;;;11.65;5.93;;;;;;;1.05;100.00;98281.63;4205244;28;20392;-75
2022/11/28 05:41:44;;;;;;;12.90;6.68;;;;;;;1.09;100.00;98288.06;4205054;28;20040;-76
2022/11/28 05:43:44;;;;;;;10.80;6.88;;;;;;;1.06;100.00;98279.72;4204237;28;20369;-76
2022/11/28 05:45:45;;;;;;;10.77;6.43;;;;;;;1.06;100.00;98279.72;4205033;28;20043;-75
2022/11/28 05:47:45;;;;;;;9.80;5.93;;;;;;;1.03;100.00;98277.63;4205627;28;20036;-76
2022/11/28 05:49:46;;;;;;;11.55;6.60;;;;;;;1.05;100.00;98269.94;4187120;28;20048;-75
2022/11/28 05:51:47;;;;;;;10.98;6.47;;;;;;;1.05;100.00;98270.72;4205046;28;20097;-76
2022/11/28 05:53:48;;;;;;;10.00;6.20;;;;;;;1.05;100.00;98270.72;4204201;28;20331;-75
2022/11/28 05:55:48;;;;;;;9.90;6.18;;;;;;;1.05;100.00;98270.72;4204879;28;20220;-75
2022/11/28 05:57:48;;;;;;;12.95;7.10;;;;;;;1.05;100.00;98272.66;4186670;28;20308;-75
2022/11/28 05:59:49;;;;;;;11.25;6.60;;;;;;;1.03;100.00;98272.19;4204570;28;20044;-75
2022/11/28 06:01:49;;;;;;;11.57;6.43;;;;;;;1.02;100.00;98276.84;4204124;28;20048;-75
2022/11/28 06:03:51;;;;;;;11.23;6.90;;;;;;;1.03;100.00;98264.00;4205511;28;20384;-75
2022/11/28 06:05:51;;;;;;;10.57;6.15;;;;;;;0.99;100.00;98261.09;4204297;28;20052;-76
2022/11/28 06:07:51;;;;;;;12.27;6.55;;;;;;;1.00;100.00;98253.78;4204128;28;20229;-75
2022/11/28 06:09:51;;;;;;;12.32;7.35;;;;;;;0.95;100.00;98253.91;4205235;28;20180;-76
2022/11/28 06:11:52;;;;;;;13.15;6.85;;;;;;;0.93;100.00;98237.09;4204359;28;20040;-75
2022/11/28 06:13:53;;;;;;;9.98;6.32;;;;;;;0.90;100.00;98226.81;4204065;28;20060;-75
2022/11/28 06:15:53;;;;;;;13.43;7.03;;;;;;;0.87;100.00;98222.81;4204905;28;20220;-75
2022/11/28 06:17:54;;;;;;;13.88;7.45;;;;;;;0.82;100.00;98225.69;4204561;28;20055;-75
2022/11/28 06:19:54;;;;;;;11.38;6.45;;;;;;;0.78;100.00;98238.38;4204422;28;20156;-75
2022/11/28 06:21:55;;;;;;;9.90;6.70;;;;;;;0.78;100.00;98224.75;4186563;28;20087;-75
2022/11/28 06:23:57;;;;;;;11.50;7.50;;;;;;;0.79;100.00;98242.69;4201546;28;20040;-75
2022/11/28 06:26:02;;;;;;;11.73;7.30;;;;;;;0.77;100.00;98242.22;4203975;28;20048;-75
2022/11/28 06:28:02;;;;;;;13.98;7.28;;;;;;;0.78;100.00;98252.78;4198791;28;20555;-75
2022/11/28 06:30:04;;;;;;;11.82;7.32;;;;;;;0.80;100.00;98255.19;4202399;28;20063;-76
2022/11/28 06:32:06;;;;;;;11.32;6.53;;;;;;;0.79;100.00;98243.50;4204073;28;20035;-75
2022/11/28 06:34:06;;;;;;;13.32;7.20;;;;;;;0.83;100.00;98235.50;4112364;28;20188;-75
2022/11/28 06:36:07;;;;;;;11.30;6.90;;;;;;;0.90;100.00;98224.09;4181942;28;20429;-75
2022/11/28 06:38:07;;;;;;;11.90;6.68;;;;;;;0.95;100.00;98230.19;4203435;28;20487;-76
2022/11/28 06:40:08;;;;;;;17.10;7.05;;;;;;;0.98;100.00;98234.19;4203748;28;20040;-75
2022/11/28 06:42:08;;;;;;;14.85;7.57;;;;;;;0.99;100.00;98233.88;4202679;28;20430;-75
2022/11/28 06:44:13;;;;;;;11.85;6.78;;;;;;;1.03;100.00;98243.00;4202441;28;20417;-75
2022/11/28 06:46:17;;;;;;;11.15;6.68;;;;;;;1.01;100.00;98245.28;4203416;28;20448;-75
2022/11/28 06:48:18;;;;;;;15.75;6.63;;;;;;;1.02;100.00;98267.88;4205533;28;20031;-75
2022/11/28 06:50:18;;;;;;;13.95;7.00;;;;;;;1.03;100.00;98266.75;4203964;28;20427;-75
2022/11/28 06:52:19;;;;;;;13.63;6.50;;;;;;;1.07;100.00;98262.22;4203461;28;20093;-76
2022/11/28 06:54:19;;;;;;;13.23;6.10;;;;;;;1.19;100.00;98251.50;4204272;28;20418;-75
2022/11/28 06:56:20;;;;;;;10.60;5.97;;;;;;;1.18;100.00;98246.38;4204740;28;20024;-75
2022/11/28 06:58:20;;;;;;;13.75;6.80;;;;;;;1.18;100.00;98228.09;4203667;28;20046;-75
2022/11/28 07:00:20;;;;;;;11.02;6.72;;;;;;;1.20;100.00;98227.78;4203943;28;20076;-75
2022/11/28 07:02:23;;;;;;;17.48;8.30;;;;;;;1.21;100.00;98249.25;4203546;28;20113;-75
2022/11/28 07:04:24;;;;;;;13.85;7.25;;;;;;;1.21;100.00;98226.66;4203295;28;20040;-75
2022/11/28 07:06:26;;;;;;;15.18;8.45;;;;;;;1.24;100.00;98209.66;4203872;28;20048;-75
2022/11/28 07:08:26;;;;;;;16.73;9.10;;;;;;;1.22;100.00;98226.31;4204055;28;20048;-75
2022/11/28 07:10:27;;;;;;;12.85;7.72;;;;;;;1.21;100.00;98238.34;4204239;28;20048;-75
2022/11/28 07:12:27;;;;;;;12.63;7.72;;;;;;;1.21;100.00;98229.38;4203063;28;20052;-75
2022/11/28 07:14:31;;;;;;;12.13;7.28;;;;;;;1.22;100.00;98229.06;4203306;28;20302;-75
2022/11/28 07:16:32;;;;;;;11.48;6.72;;;;;;;1.21;100.00;98229.38;4203099;28;20139;-74
2022/11/28 07:18:33;;;;;;;18.17;10.23;;;;;;;1.23;100.00;98235.31;4203076;28;20044;-75
2022/11/28 07:20:34;;;;;;;14.93;9.00;;;;;;;1.20;100.00;98230.50;4202663;28;20414;-75
2022/11/28 07:22:34;;;;;;;17.50;8.20;;;;;;;1.22;100.00;98236.44;4202339;28;20507;-75
2022/11/28 07:24:35;;;;;;;12.85;8.48;;;;;;;1.23;100.00;98238.81;4202992;28;20204;-75
2022/11/28 07:26:36;;;;;;;12.75;7.15;;;;;;;1.23;100.00;98233.38;4202657;28;20047;-75
2022/11/28 07:28:37;;;;;;;12.57;7.68;;;;;;;1.27;100.00;98241.72;4202255;28;20040;-75
2022/11/28 07:30:38;;;;;;;11.68;6.30;;;;;;;1.25;100.00;98241.25;4202207;28;20127;-76
2022/11/28 07:32:39;;;;;;;12.43;6.47;;;;;;;1.28;100.00;98255.03;4202267;28;20080;-75
2022/11/28 07:34:41;;;;;;;13.07;7.57;;;;;;;1.30;100.00;98254.69;4184346;28;20044;-75
2022/11/28 07:36:41;;;;;;;11.00;6.00;;;;;;;1.32;100.00;98253.25;4201180;28;20036;-75
2022/11/28 07:38:44;;;;;;;10.43;6.07;;;;;;;1.36;100.00;98258.88;4202156;28;20239;-75
2022/11/28 07:40:45;;;;;;;10.15;6.38;;;;;;;1.37;100.00;98253.09;4202415;28;20136;-75
2022/11/28 07:42:47;;;;;;;12.13;5.80;;;;;;;1.39;100.00;98250.03;4201568;28;20078;-75
2022/11/28 07:44:47;;;;;;;9.15;5.72;;;;;;;1.41;100.00;98255.97;4202370;28;20040;-75
2022/11/28 07:46:48;;;;;;;13.90;7.13;;;;;;;1.42;100.00;98246.69;4202700;28;20315;-75
2022/11/28 07:48:48;;;;;;;10.43;6.18;;;;;;;1.48;100.00;98248.09;4201763;28;20090;-75
2022/11/28 07:50:49;;;;;;;10.93;5.90;;;;;;;1.46;100.00;98242.16;4200535;28;20085;-76
2022/11/28 07:52:50;;;;;;;11.23;5.97;;;;;;;1.47;100.00;98251.13;4200997;28;20044;-76
2022/11/28 07:54:51;;;;;;;9.85;5.78;;;;;;;1.52;100.00;98249.06;4202393;28;20082;-75
2022/11/28 07:56:51;;;;;;;11.13;5.95;;;;;;;1.51;100.00;98258.38;4200054;28;20072;-75
2022/11/28 07:58:51;;;;;;;13.80;6.50;;;;;;;1.48;100.00;98259.00;4201173;28;20511;-75
2022/11/28 08:00:51;;;;;;;14.13;7.50;;;;;;;1.48;100.00;98256.25;4202130;28;20051;-75
2022/11/28 08:02:52;;;;;;;10.90;6.30;;;;;;;1.50;100.00;98261.41;4201783;28;20066;-75
2022/11/28 08:04:52;;;;;;;8.65;5.47;;;;;;;1.49;100.00;98255.16;4203091;28;20046;-75
2022/11/28 08:06:53;;;;;;;12.25;6.50;;;;;;;1.49;100.00;98252.44;4202143;28;20345;-75
2022/11/28 08:08:54;;;;;;;11.20;6.15;;;;;;;1.56;100.00;98252.72;4200665;28;20048;-75
2022/11/28 08:11:00;;;;;;;13.40;8.07;;;;;;;1.58;100.00;98247.75;4201498;28;20097;-75
2022/11/28 08:13:00;;;;;;;16.30;8.63;;;;;;;1.68;100.00;98255.59;4201437;28;20070;-76
2022/11/28 08:15:00;;;;;;;20.50;8.82;;;;;;;1.67;100.00;98258.66;4202201;28;20044;-75
2022/11/28 08:17:01;;;;;;;16.17;9.20;;;;;;;1.67;100.00;98259.44;4163567;28;1101482;-75
2022/11/28 08:19:02;;;;;;;16.42;8.70;;;;;;;1.69;100.00;98256.41;4202406;28;20399;-75
2022/11/28 08:21:07;;;;;;;13.77;9.20;;;;;;;1.67;100.00;98245.00;4201603;28;20040;-75
2022/11/28 08:23:08;;;;;;;13.95;7.03;;;;;;;1.69;100.00;98253.66;4201986;28;20044;-75
2022/11/28 08:25:08;;;;;;;15.65;9.30;;;;;;;1.70;100.00;98260.72;4203152;28;20411;-75
2022/11/28 08:27:08;;;;;;;13.23;7.88;;;;;;;1.69;100.00;98251.75;4202001;28;20399;-76
2022/11/28 08:29:09;;;;;;;12.45;7.60;;;;;;;1.71;100.00;98256.06;4203047;28;20042;-75
2022/11/28 08:31:12;;;;;;;20.63;8.65;;;;;;;1.70;100.00;98249.81;4202365;28;20040;-75
2022/11/28 08:33:13;;;;;;;19.95;9.57;;;;;;;1.74;100.00;98258.13;4202061;28;20494;-75
2022/11/28 08:35:13;;;;;;;17.52;10.30;;;;;;;1.77;100.00;98257.50;4201113;28;20123;-75
2022/11/28 08:37:13;;;;;;;16.88;7.68;;;;;;;1.77;100.00;98261.03;4200731;28;20050;-76
2022/11/28 08:39:13;;;;;;;10.65;6.53;;;;;;;1.81;100.00;98250.25;4201468;28;20447;-75
2022/11/28 08:41:20;;;;;;;14.15;6.28;;;;;;;1.83;100.00;98254.28;4201182;28;20222;-76
2022/11/28 08:43:20;;;;;;;12.45;6.55;;;;;;;1.85;100.00;98262.94;4201683;28;20135;-75
2022/11/28 08:45:20;;;;;;;13.52;6.85;;;;;;;1.88;100.00;98250.56;4202294;28;20578;-74
2022/11/28 08:47:21;;;;;;;12.10;7.13;;;;;;;1.92;100.00;98257.78;4203617;28;20190;-75
2022/11/28 08:49:21;;;;;;;13.48;7.25;;;;;;;1.93;100.00;98262.09;4202262;28;20044;-75
2022/11/28 08:51:25;;;;;;;12.50;7.15;;;;;;;1.99;100.00;98257.28;4201201;28;20159;-75
2022/11/28 08:53:26;;;;;;;15.32;9.35;;;;;;;2.05;100.00;98258.66;4201560;28;20603;-75
2022/11/28 08:55:26;;;;;;;14.32;9.07;;;;;;;2.07;100.00;98256.44;4202103;28;20081;-76
2022/11/28 08:57:26;;;;;;;11.70;7.78;;;;;;;2.09;100.00;98251.44;4202465;28;20115;-75
2022/11/28 08:59:27;;;;;;;11.43;7.20;;;;;;;2.13;100.00;98259.75;4201825;28;20495;-75
2022/11/28 09:01:27;;;;;;;13.48;6.93;;;;;;;2.15;100.00;98268.41;4201763;28;20269;-75
2022/11/28 09:03:28;;;;;;;12.30;6.90;;;;;;;2.17;100.00;98255.25;4200487;28;20072;-76
2022/11/28 09:05:29;;;;;;;9.75;6.35;;;;;;;2.17;100.00;98264.25;4199567;28;20120;-75
2022/11/28 09:07:29;;;;;;;9.65;6.22;;;;;;;2.22;100.00;98260.53;4202491;28;20154;-74
2022/11/28 09:09:30;;;;;;;11.27;6.25;;;;;;;2.27;100.00;98262.28;4201554;28;20112;-75
2022/11/28 09:11:30;;;;;;;9.68;5.88;;;;;;;2.28;100.00;98261.94;4201899;28;20048;-75
2022/11/28 09:13:30;;;;;;;12.30;6.43;;;;;;;2.38;100.00;98255.31;4201329;28;20107;-75
2022/11/28 09:15:32;;;;;;;8.88;6.15;;;;;;;2.39;100.00;98259.63;4202274;28;20056;-75
2022/11/28 09:17:32;;;;;;;10.73;6.65;;;;;;;2.43;100.00;98260.59;4202042;28;20048;-75
2022/11/28 09:19:32;;;;;;;11.13;6.53;;;;;;;2.44;100.00;98260.25;4201924;28;20495;-75
2022/11/28 09:21:33;;;;;;;10.18;6.30;;;;;;;2.48;100.00;98257.66;4202322;28;20299;-74
2022/11/28 09:23:35;;;;;;;8.35;5.07;;;;;;;2.51;100.00;98274.19;4201350;28;20155;-75
2022/11/28 09:25:37;;;;;;;10.30;6.43;;;;;;;2.55;100.00;98271.59;4202038;28;20047;-75
2022/11/28 09:27:37;;;;;;;13.38;7.13;;;;;;;2.54;100.00;98265.34;4202123;28;20472;-75
2022/11/28 09:29:37;;;;;;;11.13;7.80;;;;;;;2.58;100.00;98270.16;4201171;28;20044;-75
2022/11/28 09:31:37;;;;;;;13.57;7.15;;;;;;;2.58;100.00;98264.69;4200457;28;20043;-75
2022/11/28 09:33:38;;;;;;;11.77;6.47;;;;;;;2.60;100.00;98259.69;4182128;28;20650;-75
2022/11/28 09:35:39;;;;;;;12.52;7.57;;;;;;;2.64;100.00;98260.63;4202246;28;20906;-75
2022/11/28 09:37:40;;;;;;;14.75;7.82;;;;;;;2.64;100.00;98253.22;4201374;28;20048;-75
2022/11/28 09:39:41;;;;;;;10.27;6.63;;;;;;;2.69;100.00;98254.97;4199151;28;20868;-75
2022/11/28 09:42:14;;;;;;;11.88;6.50;;;;;;;2.72;100.00;98252.38;4199066;28;20044;-75